Time;durP1;ratioP1;P1;durP2;ratioP2;P2;SDS_P1;SDS_P2;PMS_P1;PMS_P2;Temp;Humidity;BMP_temperature;BMP_pressure;BME280_temperature;BME280_humidity;BME280_pressure;Samples;Min_cycle;Max_cycle;Signal;HPM_P1;HPM_P2
2021/08/25 00:01:13;;;;;;;3.55;3.25;;;;;;;;;;10276348;28;20053;-58
2021/08/25 00:06:11;;;;;;;6.22;3.33;;;;;;;;;;10275440;28;20056;-59
2021/08/25 00:11:10;;;;;;;6.93;4.53;;;;;;;;;;10275893;28;20099;-59
2021/08/25 00:16:09;;;;;;;4.55;2.80;;;;;;;;;;10276012;28;20037;-58
2021/08/25 00:21:08;;;;;;;5.00;3.17;;;;;;;;;;10275811;28;20048;-59
2021/08/25 00:26:06;;;;;;;6.85;3.83;;;;;;;;;;10275494;28;20036;-59
2021/08/25 00:31:04;;;;;;;6.85;3.80;;;;;;;;;;10275414;28;20351;-57
2021/08/25 00:36:05;;;;;;;5.20;3.83;;;;;;;;;;10275289;28;20079;-58
2021/08/25 00:41:03;;;;;;;4.82;4.13;;;;;;;;;;10275236;28;20041;-59
2021/08/25 00:46:01;;;;;;;4.30;3.90;;;;;;;;;;10275474;28;20048;-59
2021/08/25 00:51:00;;;;;;;3.42;3.13;;;;;;;;;;10275567;28;20414;-59
2021/08/25 00:56:00;;;;;;;6.03;4.93;;;;;;;;;;10274913;28;20048;-58
2021/08/25 01:01:02;;;;;;;6.35;4.03;;;;;;;;;;10275045;28;20049;-59
2021/08/25 01:06:01;;;;;;;5.10;3.65;;;;;;;;;;10282727;28;20071;-59
2021/08/25 01:11:06;;;;;;;4.22;3.53;;;;;;;;;;10282704;28;20084;-59
2021/08/25 01:16:05;;;;;;;8.23;4.13;;;;;;;;;;10282586;28;20085;-59
2021/08/25 01:21:04;;;;;;;4.63;3.83;;;;;;;;;;10282237;28;20056;-59
2021/08/25 01:26:03;;;;;;;4.18;3.83;;;;;;;;;;10282127;28;20041;-59
2021/08/25 01:31:02;;;;;;;4.65;3.92;;;;;;;;;;10282376;28;20417;-58
2021/08/25 01:36:01;;;;;;;4.97;4.03;;;;;;;;;;10281674;28;20069;-58
2021/08/25 01:40:59;;;;;;;4.75;3.95;;;;;;;;;;10281798;28;20084;-59
2021/08/25 01:45:57;;;;;;;4.22;3.72;;;;;;;;;;10281253;28;20045;-59
2021/08/25 01:50:57;;;;;;;4.68;3.90;;;;;;;;;;10280886;28;20053;-59
2021/08/25 01:55:55;;;;;;;6.50;3.88;;;;;;;;;;10280900;28;20069;-59
2021/08/25 02:00:54;;;;;;;6.97;3.78;;;;;;;;;;10280839;28;20520;-59
2021/08/25 02:05:52;;;;;;;5.60;3.50;;;;;;;;;;10280423;28;20422;-59
2021/08/25 02:10:52;;;;;;;4.00;3.67;;;;;;;;;;10280831;28;20048;-59
2021/08/25 02:15:50;;;;;;;3.78;3.42;;;;;;;;;;10278925;28;20495;-59
2021/08/25 02:20:48;;;;;;;5.20;4.30;;;;;;;;;;10279850;28;20041;-60
2021/08/25 02:25:47;;;;;;;5.07;3.63;;;;;;;;;;10279903;28;20066;-60
2021/08/25 02:30:46;;;;;;;4.13;3.70;;;;;;;;;;10280143;28;20045;-58
2021/08/25 02:35:45;;;;;;;5.55;4.35;;;;;;;;;;10279228;28;20083;-59
2021/08/25 02:40:43;;;;;;;4.32;3.92;;;;;;;;;;10279696;28;20056;-60
2021/08/25 02:45:42;;;;;;;4.80;4.07;;;;;;;;;;10279003;28;20045;-60
2021/08/25 02:50:42;;;;;;;5.35;3.70;;;;;;;;;;10279243;28;20065;-59
2021/08/25 02:55:40;;;;;;;4.40;4.00;;;;;;;;;;10279050;28;20060;-59
2021/08/25 03:00:38;;;;;;;6.90;4.47;;;;;;;;;;10279814;28;20040;-59
2021/08/25 03:05:37;;;;;;;5.05;4.00;;;;;;;;;;10294420;28;20080;-61
2021/08/25 03:10:37;;;;;;;7.20;4.97;;;;;;;;;;10296458;28;20055;-59
2021/08/25 03:15:35;;;;;;;8.73;4.22;;;;;;;;;;10295891;28;20064;-59
2021/08/25 03:20:34;;;;;;;4.72;3.85;;;;;;;;;;10293542;28;20044;-59
2021/08/25 03:25:32;;;;;;;4.53;4.07;;;;;;;;;;10282901;28;20122;-59
2021/08/25 03:30:32;;;;;;;6.88;4.50;;;;;;;;;;10272984;28;20086;-60
2021/08/25 03:35:30;;;;;;;4.15;3.65;;;;;;;;;;10277055;28;20084;-59
2021/08/25 03:40:28;;;;;;;4.18;3.63;;;;;;;;;;10295581;28;20065;-59
2021/08/25 03:45:27;;;;;;;7.53;4.45;;;;;;;;;;10314287;28;20083;-59
2021/08/25 03:50:27;;;;;;;5.30;4.60;;;;;;;;;;10317299;28;20064;-59
2021/08/25 03:55:25;;;;;;;6.30;4.07;;;;;;;;;;10316557;28;20528;-59
2021/08/25 04:00:23;;;;;;;6.18;4.40;;;;;;;;;;10317662;28;20045;-59
2021/08/25 04:05:22;;;;;;;8.23;4.90;;;;;;;;;;10317007;28;20504;-60
2021/08/25 04:10:22;;;;;;;6.72;4.18;;;;;;;;;;10316617;28;20154;-59
2021/08/25 04:15:20;;;;;;;5.38;4.88;;;;;;;;;;10316015;28;20075;-59
2021/08/25 04:20:18;;;;;;;5.00;4.45;;;;;;;;;;10316133;28;20520;-60
2021/08/25 04:25:16;;;;;;;6.57;5.53;;;;;;;;;;10316228;28;20045;-60
2021/08/25 04:30:16;;;;;;;6.85;4.78;;;;;;;;;;10316134;28;20056;-60
2021/08/25 04:35:15;;;;;;;7.53;6.38;;;;;;;;;;10315899;28;20076;-60
2021/08/25 04:40:13;;;;;;;10.05;7.97;;;;;;;;;;10323380;28;20044;-60
2021/08/25 04:45:11;;;;;;;5.47;4.45;;;;;;;;;;10324188;28;20087;-60
2021/08/25 04:50:11;;;;;;;7.93;5.80;;;;;;;;;;10324005;28;20465;-60
2021/08/25 04:55:10;;;;;;;6.85;5.60;;;;;;;;;;10320964;28;20076;-60
2021/08/25 05:00:09;;;;;;;9.35;5.30;;;;;;;;;;10320487;28;20068;-60
2021/08/25 05:05:08;;;;;;;8.02;5.50;;;;;;;;;;10321430;28;20087;-60
2021/08/25 05:10:08;;;;;;;5.80;5.15;;;;;;;;;;10323803;28;20094;-60
2021/08/25 05:15:07;;;;;;;7.60;5.25;;;;;;;;;;10324405;28;20493;-60
2021/08/25 05:20:06;;;;;;;7.90;5.80;;;;;;;;;;10323847;28;20424;-59
2021/08/25 05:25:05;;;;;;;10.27;6.13;;;;;;;;;;10324092;28;20080;-60
2021/08/25 05:30:06;;;;;;;5.68;5.00;;;;;;;;;;10323871;28;20044;-60
2021/08/25 05:35:05;;;;;;;6.90;5.68;;;;;;;;;;10322221;28;20076;-60
2021/08/25 05:40:03;;;;;;;6.35;5.70;;;;;;;;;;10323360;28;20037;-59
2021/08/25 05:45:02;;;;;;;9.82;5.32;;;;;;;;;;10323271;28;20044;-59
2021/08/25 05:50:01;;;;;;;7.60;6.43;;;;;;;;;;10321554;28;20060;-60
2021/08/25 05:55:00;;;;;;;11.63;7.05;;;;;;;;;;10322603;28;20088;-60
2021/08/25 05:59:58;;;;;;;8.13;6.13;;;;;;;;;;10322612;28;20091;-60
2021/08/25 06:04:56;;;;;;;11.40;5.85;;;;;;;;;;10322238;28;20044;-60
2021/08/25 06:09:56;;;;;;;9.32;6.13;;;;;;;;;;10322430;28;20068;-63
2021/08/25 06:14:54;;;;;;;8.32;7.07;;;;;;;;;;10320927;28;20068;-60
2021/08/25 06:19:53;;;;;;;15.63;8.32;;;;;;;;;;10321620;28;20068;-60
2021/08/25 06:24:51;;;;;;;12.05;7.90;;;;;;;;;;10321637;28;20051;-60
2021/08/25 06:29:51;;;;;;;12.07;8.15;;;;;;;;;;10321453;28;20044;-59
2021/08/25 06:34:49;;;;;;;10.88;7.72;;;;;;;;;;10321035;28;20076;-60
2021/08/25 06:39:47;;;;;;;10.50;7.55;;;;;;;;;;10321027;28;20064;-59
2021/08/25 06:44:46;;;;;;;11.20;7.90;;;;;;;;;;10320021;28;20047;-60
2021/08/25 06:49:45;;;;;;;11.50;8.07;;;;;;;;;;10320597;28;20052;-59
2021/08/25 06:54:44;;;;;;;14.20;7.88;;;;;;;;;;10320286;28;20083;-60
2021/08/25 06:59:42;;;;;;;11.43;7.55;;;;;;;;;;10319441;28;20040;-59
2021/08/25 07:04:45;;;;;;;18.13;9.45;;;;;;;;;;10319813;28;20497;-58
2021/08/25 07:09:44;;;;;;;8.90;7.97;;;;;;;;;;10319833;28;20040;-59
2021/08/25 07:14:43;;;;;;;10.35;8.88;;;;;;;;;;10318357;28;20076;-59
2021/08/25 07:19:42;;;;;;;11.38;8.23;;;;;;;;;;10318952;28;20521;-60
2021/08/25 07:24:41;;;;;;;23.98;18.35;;;;;;;;;;10319203;28;20072;-60
2021/08/25 07:29:40;;;;;;;16.02;10.68;;;;;;;;;;10317964;28;20520;-60
2021/08/25 07:34:38;;;;;;;23.73;13.85;;;;;;;;;;10318636;28;20079;-60
2021/08/25 07:39:37;;;;;;;14.23;11.00;;;;;;;;;;10318622;28;20059;-58
2021/08/25 07:44:35;;;;;;;10.98;9.65;;;;;;;;;;10318282;28;20044;-61
2021/08/25 07:49:35;;;;;;;19.77;11.38;;;;;;;;;;10317433;28;20053;-61
2021/08/25 07:54:33;;;;;;;16.95;8.15;;;;;;;;;;10316213;28;20490;-59
2021/08/25 07:59:31;;;;;;;9.50;7.82;;;;;;;;;;10317925;28;20045;-60
2021/08/25 08:04:30;;;;;;;10.65;8.77;;;;;;;;;;10317592;28;20055;-61
2021/08/25 08:09:29;;;;;;;16.08;9.73;;;;;;;;;;10317831;28;20040;-60
2021/08/25 08:14:28;;;;;;;14.98;9.57;;;;;;;;;;10317751;28;20453;-60
2021/08/25 08:19:30;;;;;;;18.83;10.48;;;;;;;;;;10317281;28;20041;-59
2021/08/25 08:24:30;;;;;;;10.43;9.00;;;;;;;;;;10317392;28;20052;-60
2021/08/25 08:29:29;;;;;;;13.18;8.25;;;;;;;;;;10317289;28;20044;-60
2021/08/25 08:34:27;;;;;;;12.75;8.88;;;;;;;;;;10316917;28;20053;-60
2021/08/25 08:39:26;;;;;;;16.25;9.65;;;;;;;;;;10317143;28;20044;-60
2021/08/25 08:44:26;;;;;;;13.23;8.45;;;;;;;;;;10317028;28;20504;-60
2021/08/25 08:49:25;;;;;;;12.88;8.90;;;;;;;;;;10316069;28;20531;-60
2021/08/25 08:54:23;;;;;;;14.73;8.60;;;;;;;;;;10315836;28;20508;-59
2021/08/25 08:59:24;;;;;;;16.95;8.60;;;;;;;;;;10316642;28;20040;-59
2021/08/25 09:04:33;;;;;;;16.63;9.32;;;;;;;;;;10316588;28;20098;-60
2021/08/25 09:09:51;;;;;;;19.65;9.60;;;;;;;;;;10316558;28;20041;-59
2021/08/25 09:14:49;;;;;;;24.52;10.77;;;;;;;;;;10316218;28;20045;-60
2021/08/25 09:19:48;;;;;;;24.65;12.98;;;;;;;;;;10316462;28;20044;-60
2021/08/25 09:24:47;;;;;;;23.70;11.40;;;;;;;;;;10320143;28;20052;-60
2021/08/25 09:29:54;;;;;;;23.45;9.65;;;;;;;;;;10323676;28;20044;-60
2021/08/25 09:34:56;;;;;;;20.55;11.80;;;;;;;;;;10323529;28;20053;-59
2021/08/25 09:39:55;;;;;;;22.60;10.30;;;;;;;;;;10323314;28;20056;-60
2021/08/25 09:45:13;;;;;;;18.27;9.95;;;;;;;;;;10323043;28;20048;-60
2021/08/25 09:50:15;;;;;;;16.63;7.90;;;;;;;;;;10323479;28;20076;-60
2021/08/25 09:55:13;;;;;;;14.40;7.55;;;;;;;;;;10321744;28;20075;-60
2021/08/25 10:00:13;;;;;;;14.07;7.30;;;;;;;;;;10321330;28;20072;-61
2021/08/25 10:05:13;;;;;;;12.25;6.72;;;;;;;;;;10321225;28;20091;-62
2021/08/25 10:10:11;;;;;;;12.65;6.85;;;;;;;;;;10321123;28;20083;-60
2021/08/25 10:15:25;;;;;;;13.52;7.00;;;;;;;;;;10321217;28;20059;-59
2021/08/25 10:20:35;;;;;;;17.98;7.65;;;;;;;;;;10320360;28;20064;-60
2021/08/25 10:25:46;;;;;;;16.05;6.45;;;;;;;;;;10321094;28;20535;-59
2021/08/25 10:30:55;;;;;;;11.43;5.95;;;;;;;;;;10320971;28;20052;-59
2021/08/25 10:35:54;;;;;;;9.45;5.90;;;;;;;;;;10319296;28;20076;-59
2021/08/25 10:40:54;;;;;;;13.80;5.78;;;;;;;;;;10320217;28;20044;-59
2021/08/25 10:45:56;;;;;;;10.90;6.35;;;;;;;;;;10319615;28;20044;-59
2021/08/25 10:50:58;;;;;;;9.20;5.68;;;;;;;;;;10319765;28;20045;-60
2021/08/25 10:56:04;;;;;;;5.05;4.55;;;;;;;;;;10319510;28;20087;-59
2021/08/25 11:01:02;;;;;;;9.57;5.70;;;;;;;;;;10318962;28;20083;-60
2021/08/25 11:06:02;;;;;;;6.25;5.65;;;;;;;;;;10319643;28;20056;-59
2021/08/25 11:11:12;;;;;;;8.38;5.50;;;;;;;;;;10318952;28;20500;-60
2021/08/25 11:16:25;;;;;;;7.32;5.05;;;;;;;;;;10318981;28;20056;-60
2021/08/25 11:21:25;;;;;;;9.13;5.40;;;;;;;;;;10318659;28;20051;-59
2021/08/25 11:26:23;;;;;;;11.32;5.05;;;;;;;;;;10318728;28;20045;-60
2021/08/25 11:31:25;;;;;;;12.13;5.88;;;;;;;;;;10318095;28;20045;-60
2021/08/25 11:36:25;;;;;;;9.80;5.78;;;;;;;;;;10317979;28;20072;-60
2021/08/25 11:41:23;;;;;;;10.88;4.97;;;;;;;;;;10317805;28;20504;-60
2021/08/25 11:46:25;;;;;;;9.02;4.82;;;;;;;;;;10316724;28;20080;-60
2021/08/25 11:51:25;;;;;;;12.40;5.60;;;;;;;;;;10317131;28;20521;-59
2021/08/25 11:56:23;;;;;;;8.30;4.88;;;;;;;;;;10317016;28;20076;-60
2021/08/25 12:01:22;;;;;;;6.57;5.07;;;;;;;;;;10316665;28;20048;-60
2021/08/25 12:06:21;;;;;;;9.95;5.20;;;;;;;;;;10317340;28;20053;-60
2021/08/25 12:11:21;;;;;;;9.88;5.53;;;;;;;;;;10316729;28;20055;-60
2021/08/25 12:16:20;;;;;;;12.57;5.47;;;;;;;;;;10316580;28;20480;-61
2021/08/25 12:21:19;;;;;;;13.43;4.60;;;;;;;;;;10316567;28;20060;-61
2021/08/25 12:26:17;;;;;;;10.35;5.28;;;;;;;;;;10316381;28;20258;-61
2021/08/25 12:31:18;;;;;;;8.02;5.65;;;;;;;;;;10316696;28;20250;-60
2021/08/25 12:36:23;;;;;;;11.75;5.82;;;;;;;;;;10316264;28;20072;-60
2021/08/25 12:41:21;;;;;;;5.75;4.45;;;;;;;;;;10316232;28;20045;-60
2021/08/25 12:46:21;;;;;;;8.93;4.30;;;;;;;;;;10316310;28;20080;-60
2021/08/25 12:51:19;;;;;;;9.30;5.10;;;;;;;;;;10316140;28;20049;-61
2021/08/25 12:56:19;;;;;;;9.77;5.03;;;;;;;;;;10315772;28;20052;-61
2021/08/25 13:01:17;;;;;;;6.43;4.82;;;;;;;;;;10322374;28;20424;-59
2021/08/25 13:06:17;;;;;;;11.45;5.72;;;;;;;;;;10324223;28;20044;-58
2021/08/25 13:11:16;;;;;;;15.70;5.15;;;;;;;;;;10323536;28;20562;-59
2021/08/25 13:16:15;;;;;;;5.75;4.28;;;;;;;;;;10323138;28;20099;-59
2021/08/25 13:21:13;;;;;;;6.13;4.18;;;;;;;;;;10323215;28;20068;-60
2021/08/25 13:26:15;;;;;;;5.57;4.32;;;;;;;;;;10322786;28;20068;-60
2021/08/25 13:31:14;;;;;;;7.32;4.22;;;;;;;;;;10322841;28;20321;-60
2021/08/25 13:36:12;;;;;;;11.75;4.53;;;;;;;;;;10322501;28;20083;-60
2021/08/25 13:41:10;;;;;;;13.70;5.32;;;;;;;;;;10322156;28;20040;-60
2021/08/25 13:46:10;;;;;;;7.70;5.60;;;;;;;;;;10322121;28;20079;-60
2021/08/25 13:51:09;;;;;;;10.63;6.40;;;;;;;;;;10322166;28;20524;-60
2021/08/25 13:56:08;;;;;;;14.63;4.13;;;;;;;;;;10321991;28;20041;-61
2021/08/25 14:01:06;;;;;;;8.18;6.18;;;;;;;;;;10321995;28;20087;-61
2021/08/25 14:06:06;;;;;;;7.15;3.70;;;;;;;;;;10321592;28;20072;-61
2021/08/25 14:11:10;;;;;;;10.15;5.38;;;;;;;;;;10321176;28;20068;-61
2021/08/25 14:16:09;;;;;;;10.95;6.07;;;;;;;;;;10321740;28;20183;-61
2021/08/25 14:21:08;;;;;;;6.65;6.03;;;;;;;;;;10321411;28;20075;-59
2021/08/25 14:26:07;;;;;;;6.57;5.07;;;;;;;;;;10320959;28;20044;-60
2021/08/25 14:31:05;;;;;;;9.57;4.18;;;;;;;;;;10296989;28;20103;-59
2021/08/25 14:36:04;;;;;;;9.18;5.90;;;;;;;;;;10295026;28;20492;-58
2021/08/25 14:41:04;;;;;;;58.90;8.93;;;;;;;;;;10296946;28;20068;-60
2021/08/25 14:46:04;;;;;;;19.90;7.85;;;;;;;;;;10295650;28;20044;-59
2021/08/25 14:51:02;;;;;;;24.00;7.90;;;;;;;;;;10293613;28;20073;-59
2021/08/25 14:56:02;;;;;;;28.25;8.88;;;;;;;;;;10299203;28;20063;-61
2021/08/25 15:01:01;;;;;;;16.70;7.43;;;;;;;;;;10293192;28;20080;-59
2021/08/25 15:06:00;;;;;;;19.35;8.45;;;;;;;;;;10286834;28;20457;-60
2021/08/25 15:11:01;;;;;;;22.67;7.88;;;;;;;;;;10277111;28;20069;-61
2021/08/25 15:15:59;;;;;;;16.80;7.53;;;;;;;;;;10277319;28;20049;-60
2021/08/25 15:21:00;;;;;;;8.70;6.68;;;;;;;;;;10276071;28;20079;-60
2021/08/25 15:25:58;;;;;;;19.48;8.43;;;;;;;;;;10277714;28;20056;-60
2021/08/25 15:30:57;;;;;;;12.45;8.65;;;;;;;;;;10285826;28;20052;-61
2021/08/25 15:35:55;;;;;;;16.98;8.02;;;;;;;;;;10290402;28;20068;-59
2021/08/25 15:40:55;;;;;;;11.13;6.97;;;;;;;;;;10297260;28;20068;-58
2021/08/25 15:45:54;;;;;;;21.80;7.68;;;;;;;;;;10297860;28;20068;-57
2021/08/25 15:50:53;;;;;;;17.40;7.43;;;;;;;;;;10295296;28;20067;-58
2021/08/25 15:55:51;;;;;;;12.65;7.82;;;;;;;;;;10297188;28;20068;-59
2021/08/25 16:00:51;;;;;;;13.60;8.23;;;;;;;;;;10283767;28;20159;-58
2021/08/25 16:05:51;;;;;;;17.60;7.32;;;;;;;;;;10299736;28;20078;-58
2021/08/25 16:10:49;;;;;;;17.00;8.32;;;;;;;;;;10280670;28;20545;-60
2021/08/25 16:15:48;;;;;;;14.55;8.82;;;;;;;;;;10276881;28;20048;-59
2021/08/25 16:20:47;;;;;;;22.40;9.52;;;;;;;;;;10276519;28;20068;-59
2021/08/25 16:25:46;;;;;;;20.65;11.18;;;;;;;;;;10288846;28;20083;-59
2021/08/25 16:30:45;;;;;;;12.52;8.23;;;;;;;;;;10285797;28;20069;-60
2021/08/25 16:35:43;;;;;;;23.13;8.75;;;;;;;;;;10273280;28;20068;-60
2021/08/25 16:40:42;;;;;;;11.13;7.60;;;;;;;;;;10275251;28;20072;-59
2021/08/25 16:45:41;;;;;;;17.80;8.57;;;;;;;;;;10276028;28;20056;-59
2021/08/25 16:50:39;;;;;;;11.77;7.60;;;;;;;;;;10275702;28;20115;-59
2021/08/25 16:55:37;;;;;;;22.00;8.65;;;;;;;;;;10275074;28;20059;-60
2021/08/25 17:00:37;;;;;;;21.73;11.70;;;;;;;;;;10274916;28;20084;-61
2021/08/25 17:05:36;;;;;;;15.93;8.95;;;;;;;;;;10282553;28;20077;-58
2021/08/25 17:10:34;;;;;;;17.52;8.02;;;;;;;;;;10284725;28;20518;-59
2021/08/25 17:15:34;;;;;;;24.95;8.68;;;;;;;;;;10283660;28;20175;-59
2021/08/25 17:20:34;;;;;;;17.17;8.35;;;;;;;;;;10283509;28;20068;-59
2021/08/25 17:25:32;;;;;;;19.10;8.65;;;;;;;;;;10291959;28;20057;-59
2021/08/25 17:30:31;;;;;;;19.30;8.35;;;;;;;;;;10284401;28;20069;-60
2021/08/25 17:35:29;;;;;;;15.82;8.38;;;;;;;;;;10291038;28;20064;-58
2021/08/25 17:40:29;;;;;;;12.93;8.18;;;;;;;;;;10298504;28;20080;-59
2021/08/25 17:45:27;;;;;;;11.43;9.43;;;;;;;;;;10299057;28;20083;-59
2021/08/25 17:50:26;;;;;;;8.20;7.32;;;;;;;;;;10322089;28;20063;-59
2021/08/25 17:55:25;;;;;;;14.00;8.80;;;;;;;;;;10316878;28;20068;-59
2021/08/25 18:00:26;;;;;;;16.55;9.45;;;;;;;;;;10302397;28;20072;-59
2021/08/25 18:05:25;;;;;;;12.48;8.48;;;;;;;;;;10280175;28;20041;-60
2021/08/25 18:10:23;;;;;;;13.27;7.90;;;;;;;;;;10295793;28;20064;-60
2021/08/25 18:15:21;;;;;;;13.20;8.90;;;;;;;;;;10281238;28;20053;-60
2021/08/25 18:20:21;;;;;;;13.57;8.90;;;;;;;;;;10303583;28;20079;-60
2021/08/25 18:25:20;;;;;;;13.32;8.90;;;;;;;;;;10305128;28;20492;-60
2021/08/25 18:30:18;;;;;;;16.95;9.50;;;;;;;;;;10298604;28;20079;-58
2021/08/25 18:35:16;;;;;;;14.35;9.80;;;;;;;;;;10297613;28;20076;-59
2021/08/25 18:40:16;;;;;;;14.30;10.30;;;;;;;;;;10279130;28;20080;-58
2021/08/25 18:45:14;;;;;;;12.13;10.15;;;;;;;;;;10297485;28;20071;-60
2021/08/25 18:50:12;;;;;;;15.27;10.70;;;;;;;;;;10284855;28;20069;-59
2021/08/25 18:55:11;;;;;;;15.60;10.98;;;;;;;;;;10279048;28;20041;-60
2021/08/25 19:00:11;;;;;;;15.68;11.45;;;;;;;;;;10279560;28;20517;-59
2021/08/25 19:05:10;;;;;;;19.38;12.75;;;;;;;;;;10279339;28;20076;-59
2021/08/25 19:10:09;;;;;;;13.30;11.23;;;;;;;;;;10279244;28;20420;-60
2021/08/25 19:15:08;;;;;;;14.82;11.95;;;;;;;;;;10278515;28;20048;-60
2021/08/25 19:20:12;;;;;;;14.85;12.95;;;;;;;;;;10278842;28;20095;-59
2021/08/25 19:25:12;;;;;;;16.05;14.10;;;;;;;;;;10277421;28;20053;-60
2021/08/25 19:30:18;;;;;;;21.92;13.80;;;;;;;;;;10278003;28;20060;-61
2021/08/25 19:35:17;;;;;;;19.55;14.00;;;;;;;;;;10277858;28;20064;-58
2021/08/25 19:40:16;;;;;;;15.15;12.48;;;;;;;;;;10289241;28;20068;-59
2021/08/25 19:45:16;;;;;;;16.33;13.30;;;;;;;;;;10285671;28;20120;-59
2021/08/25 19:50:14;;;;;;;14.60;12.40;;;;;;;;;;10287116;28;20073;-58
2021/08/25 19:55:14;;;;;;;19.48;12.75;;;;;;;;;;10286030;28;20075;-57
2021/08/25 20:00:13;;;;;;;21.02;13.00;;;;;;;;;;10284779;28;20072;-58
2021/08/25 20:05:11;;;;;;;18.25;13.57;;;;;;;;;;10288097;28;20072;-58
2021/08/25 20:10:10;;;;;;;16.33;13.95;;;;;;;;;;10279524;28;20056;-58
2021/08/25 20:15:10;;;;;;;16.17;14.02;;;;;;;;;;10272842;28;20087;-59
2021/08/25 20:20:10;;;;;;;14.50;12.98;;;;;;;;;;10287337;28;20486;-59
2021/08/25 20:25:09;;;;;;;18.35;14.13;;;;;;;;;;10277149;28;20084;-57
2021/08/25 20:30:08;;;;;;;16.60;14.90;;;;;;;;;;10271871;28;20072;-58
2021/08/25 20:35:08;;;;;;;18.55;14.27;;;;;;;;;;10290069;28;20489;-58
2021/08/25 20:40:07;;;;;;;18.85;14.18;;;;;;;;;;10298973;28;20080;-59
2021/08/25 20:45:06;;;;;;;15.38;13.85;;;;;;;;;;10317319;28;20080;-58
2021/08/25 20:50:05;;;;;;;16.77;15.00;;;;;;;;;;10316404;28;20056;-58
2021/08/25 20:55:05;;;;;;;16.58;14.07;;;;;;;;;;10315293;28;20040;-58
2021/08/25 21:00:04;;;;;;;15.85;13.40;;;;;;;;;;10285914;28;20087;-58
2021/08/25 21:05:02;;;;;;;18.02;13.85;;;;;;;;;;10276015;28;20056;-59
2021/08/25 21:10:00;;;;;;;15.15;13.65;;;;;;;;;;10275996;28;20449;-59
2021/08/25 21:15:00;;;;;;;16.67;14.20;;;;;;;;;;10275857;28;20045;-59
2021/08/25 21:19:58;;;;;;;17.30;14.13;;;;;;;;;;10288284;28;20505;-58
2021/08/25 21:24:57;;;;;;;18.90;15.07;;;;;;;;;;10287203;28;20073;-56
2021/08/25 21:29:55;;;;;;;14.70;13.25;;;;;;;;;;10283714;28;20045;-58
2021/08/25 21:34:55;;;;;;;21.42;14.70;;;;;;;;;;10283011;28;20037;-60
2021/08/25 21:39:53;;;;;;;19.00;14.02;;;;;;;;;;10282821;28;20076;-58
2021/08/25 21:44:51;;;;;;;16.17;14.52;;;;;;;;;;10281629;28;20052;-60
2021/08/25 21:49:50;;;;;;;16.10;14.60;;;;;;;;;;10281379;28;20049;-60
2021/08/25 21:54:49;;;;;;;15.95;14.20;;;;;;;;;;10282221;28;20044;-60
2021/08/25 21:59:54;;;;;;;16.77;15.18;;;;;;;;;;10280644;28;20072;-60
2021/08/25 22:04:57;;;;;;;15.73;14.10;;;;;;;;;;10282066;28;20512;-59
2021/08/25 22:09:57;;;;;;;21.60;13.80;;;;;;;;;;10281836;28;20048;-58
2021/08/25 22:14:55;;;;;;;15.65;13.88;;;;;;;;;;10293395;28;20048;-59
2021/08/25 22:19:54;;;;;;;15.48;13.98;;;;;;;;;;10294068;28;20091;-58
2021/08/25 22:24:52;;;;;;;16.00;13.25;;;;;;;;;;10291883;28;20576;-59
2021/08/25 22:29:52;;;;;;;12.40;11.20;;;;;;;;;;10281029;28;20083;-59
2021/08/25 22:34:50;;;;;;;11.02;10.02;;;;;;;;;;10280768;28;20052;-59
2021/08/25 22:39:48;;;;;;;11.25;9.80;;;;;;;;;;10279349;28;20053;-58
2021/08/25 22:44:47;;;;;;;11.77;9.43;;;;;;;;;;10280503;28;20051;-59
2021/08/25 22:49:46;;;;;;;25.25;11.02;;;;;;;;;;10279505;28;20552;-59
2021/08/25 22:54:45;;;;;;;10.75;9.65;;;;;;;;;;10279693;28;20080;-59
2021/08/25 22:59:43;;;;;;;11.20;9.70;;;;;;;;;;10279634;28;20489;-59
2021/08/25 23:04:43;;;;;;;10.18;9.27;;;;;;;;;;10279328;28;20439;-59
2021/08/25 23:09:43;;;;;;;9.98;7.70;;;;;;;;;;10279311;28;20080;-60
2021/08/25 23:14:41;;;;;;;8.07;6.20;;;;;;;;;;10279344;28;20380;-59
2021/08/25 23:19:39;;;;;;;5.75;4.80;;;;;;;;;;10278010;28;20403;-59
2021/08/25 23:24:40;;;;;;;7.50;2.70;;;;;;;;;;10278491;28;20084;-59
2021/08/25 23:29:39;;;;;;;4.15;2.38;;;;;;;;;;10278705;28;20072;-60
2021/08/25 23:34:38;;;;;;;2.92;1.92;;;;;;;;;;10278273;28;20041;-59
2021/08/25 23:39:37;;;;;;;3.50;2.45;;;;;;;;;;10278291;28;20498;-60
2021/08/25 23:44:35;;;;;;;4.65;2.25;;;;;;;;;;10277456;28;20155;-59
2021/08/25 23:49:35;;;;;;;4.65;2.08;;;;;;;;;;10277145;28;20063;-59
2021/08/25 23:54:33;;;;;;;3.95;2.30;;;;;;;;;;10289612;28;20091;-59
2021/08/25 23:59:31;;;;;;;3.17;2.55;;;;;;;;;;10287970;28;20095;-59
